Time;durP1;ratioP1;P1;durP2;ratioP2;P2;SDS_P1;SDS_P2;PMS_P1;PMS_P2;Temp;Humidity;BMP_temperature;BMP_pressure;BME280_temperature;BME280_humidity;BME280_pressure;Samples;Min_cycle;Max_cycle;Signal;HPM_P1;HPM_P2
2023/08/08 00:01:28;;;;;;;7.50;5.27;;;;;;;;;;5067821;28;20045;-60
2023/08/08 00:03:54;;;;;;;10.60;4.67;;;;;;;;;;5068012;28;20067;-61
2023/08/08 00:06:20;;;;;;;10.03;4.57;;;;;;;;;;5067478;28;20132;-60
2023/08/08 00:08:46;;;;;;;12.67;4.73;;;;;;;;;;5067868;28;20037;-60
2023/08/08 00:11:12;;;;;;;5.90;4.30;;;;;;;;;;5067072;28;20503;-61
2023/08/08 00:13:38;;;;;;;8.03;4.93;;;;;;;;;;5067638;28;20544;-60
2023/08/08 00:16:04;;;;;;;10.87;4.63;;;;;;;;;;5067684;28;20071;-60
2023/08/08 00:18:31;;;;;;;7.97;4.47;;;;;;;;;;5066970;28;20422;-60
2023/08/08 00:20:57;;;;;;;11.00;4.67;;;;;;;;;;5067514;28;20075;-60
2023/08/08 00:23:23;;;;;;;7.37;4.23;;;;;;;;;;5067783;28;20087;-61
2023/08/08 00:25:50;;;;;;;11.63;4.90;;;;;;;;;;5067667;28;20048;-60
2023/08/08 00:28:16;;;;;;;7.40;4.43;;;;;;;;;;5066929;28;20424;-60
2023/08/08 00:30:43;;;;;;;10.13;4.77;;;;;;;;;;5067560;28;20040;-61
2023/08/08 00:33:09;;;;;;;11.23;5.23;;;;;;;;;;5068383;28;20106;-60
2023/08/08 00:35:35;;;;;;;12.97;6.10;;;;;;;;;;5070794;28;20522;-61
2023/08/08 00:38:01;;;;;;;13.33;6.60;;;;;;;;;;5071191;28;20052;-61
2023/08/08 00:40:27;;;;;;;10.17;5.50;;;;;;;;;;5070194;28;20040;-61
2023/08/08 00:42:53;;;;;;;10.30;4.83;;;;;;;;;;5070735;28;20109;-61
2023/08/08 00:45:19;;;;;;;10.33;5.40;;;;;;;;;;5055282;28;20049;-61
2023/08/08 00:47:45;;;;;;;12.87;5.90;;;;;;;;;;5049766;28;20052;-61
2023/08/08 00:50:11;;;;;;;8.47;5.63;;;;;;;;;;5050661;28;20045;-61
2023/08/08 00:52:39;;;;;;;8.57;5.37;;;;;;;;;;5050085;28;20590;-61
2023/08/08 00:55:05;;;;;;;9.87;5.50;;;;;;;;;;5050370;28;20040;-60
2023/08/08 00:57:32;;;;;;;8.30;5.43;;;;;;;;;;5050669;28;20095;-61
2023/08/08 00:59:58;;;;;;;9.27;5.57;;;;;;;;;;5050633;28;20041;-61
2023/08/08 01:02:24;;;;;;;12.23;5.33;;;;;;;;;;5049825;28;20339;-61
2023/08/08 01:04:50;;;;;;;8.00;5.20;;;;;;;;;;5050551;28;20410;-60
2023/08/08 01:07:36;;;;;;;10.50;5.60;;;;;;;;;;5050348;28;20052;-61
2023/08/08 01:10:07;;;;;;;10.57;5.13;;;;;;;;;;5050266;28;20499;-60
2023/08/08 01:12:39;;;;;;;11.97;5.73;;;;;;;;;;5049619;28;20438;-61
2023/08/08 01:15:08;;;;;;;10.80;5.53;;;;;;;;;;5050252;28;20044;-60
2023/08/08 01:17:35;;;;;;;14.00;5.73;;;;;;;;;;5049934;28;20182;-60
2023/08/08 01:20:01;;;;;;;8.27;5.10;;;;;;;;;;5051266;28;20049;-60
2023/08/08 01:22:30;;;;;;;9.77;6.17;;;;;;;;;;5069033;28;20185;-61
2023/08/08 01:24:56;;;;;;;11.20;5.80;;;;;;;;;;5070336;28;20052;-61
2023/08/08 01:27:23;;;;;;;12.33;6.40;;;;;;;;;;5070008;28;20048;-61
2023/08/08 01:29:49;;;;;;;10.63;5.70;;;;;;;;;;5064384;28;20033;-60
2023/08/08 01:32:15;;;;;;;22.93;6.40;;;;;;;;;;5049694;28;20218;-61
2023/08/08 01:34:41;;;;;;;10.50;5.57;;;;;;;;;;5050044;28;20040;-61
2023/08/08 01:37:07;;;;;;;14.50;5.93;;;;;;;;;;5049776;28;20655;-61
2023/08/08 01:39:34;;;;;;;12.03;5.77;;;;;;;;;;5049986;28;20049;-61
2023/08/08 01:42:01;;;;;;;11.57;6.30;;;;;;;;;;5050841;28;20040;-61
2023/08/08 01:44:28;;;;;;;12.07;7.07;;;;;;;;;;5048711;28;20110;-61
2023/08/08 01:46:54;;;;;;;11.07;5.70;;;;;;;;;;5049208;28;20044;-61
2023/08/08 01:49:20;;;;;;;12.77;6.67;;;;;;;;;;5049389;28;20414;-61
2023/08/08 01:51:46;;;;;;;15.90;6.90;;;;;;;;;;5049342;28;20063;-61
2023/08/08 01:54:12;;;;;;;13.73;6.13;;;;;;;;;;5049363;28;20053;-60
2023/08/08 01:56:38;;;;;;;17.27;6.93;;;;;;;;;;5049126;28;20143;-60
2023/08/08 01:59:04;;;;;;;14.23;5.50;;;;;;;;;;5049740;28;20048;-61
2023/08/08 02:01:30;;;;;;;13.53;7.17;;;;;;;;;;5066124;28;20067;-61
2023/08/08 02:03:56;;;;;;;13.37;6.00;;;;;;;;;;5069157;28;20059;-61
2023/08/08 02:06:22;;;;;;;12.13;6.03;;;;;;;;;;5068700;28;20048;-62
2023/08/08 02:08:48;;;;;;;15.80;8.10;;;;;;;;;;5069283;28;20076;-61
2023/08/08 02:11:14;;;;;;;14.30;6.67;;;;;;;;;;5053470;28;20049;-61
2023/08/08 02:13:40;;;;;;;14.03;6.50;;;;;;;;;;5048944;28;20045;-61
2023/08/08 02:16:06;;;;;;;16.17;7.03;;;;;;;;;;5049014;28;20647;-61
2023/08/08 02:18:32;;;;;;;12.27;6.30;;;;;;;;;;5049474;28;20045;-61
2023/08/08 02:20:58;;;;;;;12.80;6.83;;;;;;;;;;5061101;28;20075;-61
2023/08/08 02:23:24;;;;;;;20.27;7.33;;;;;;;;;;5055227;28;20466;-61
2023/08/08 02:25:50;;;;;;;14.53;7.13;;;;;;;;;;5048916;28;20049;-60
2023/08/08 02:28:16;;;;;;;17.17;7.27;;;;;;;;;;5048768;28;20048;-61
2023/08/08 02:30:42;;;;;;;15.70;7.73;;;;;;;;;;5058684;28;20040;-60
2023/08/08 02:33:08;;;;;;;11.37;7.37;;;;;;;;;;5068891;28;20048;-61
2023/08/08 02:35:34;;;;;;;18.73;7.40;;;;;;;;;;5068819;28;20044;-61
2023/08/08 02:38:00;;;;;;;14.53;8.00;;;;;;;;;;5068303;28;20266;-60
2023/08/08 02:40:26;;;;;;;18.10;7.27;;;;;;;;;;5060163;28;20091;-61
2023/08/08 02:42:52;;;;;;;15.87;8.07;;;;;;;;;;5048709;28;20052;-61
2023/08/08 02:45:18;;;;;;;16.00;7.60;;;;;;;;;;5048519;28;20045;-60
2023/08/08 02:47:44;;;;;;;13.73;8.10;;;;;;;;;;5048388;28;20041;-61
2023/08/08 02:50:10;;;;;;;15.07;7.93;;;;;;;;;;5053281;28;20040;-61
2023/08/08 02:52:36;;;;;;;15.30;7.13;;;;;;;;;;5067157;28;20522;-60
2023/08/08 02:55:02;;;;;;;26.30;8.77;;;;;;;;;;5049810;28;20041;-60
2023/08/08 02:57:28;;;;;;;15.43;7.60;;;;;;;;;;5048240;28;20127;-60
2023/08/08 02:59:54;;;;;;;17.43;7.73;;;;;;;;;;5048090;28;20123;-61
2023/08/08 03:02:20;;;;;;;17.47;8.73;;;;;;;;;;5047997;28;20546;-61
2023/08/08 03:04:46;;;;;;;12.17;8.30;;;;;;;;;;5048317;28;20110;-61
2023/08/08 03:07:12;;;;;;;17.00;7.50;;;;;;;;;;5053259;28;20055;-60
2023/08/08 03:09:38;;;;;;;23.00;9.40;;;;;;;;;;5068638;28;20041;-61
2023/08/08 03:12:04;;;;;;;13.00;6.90;;;;;;;;;;5068164;28;21111;-60
2023/08/08 03:14:30;;;;;;;12.93;8.00;;;;;;;;;;5057701;28;20041;-60
2023/08/08 03:16:56;;;;;;;13.70;7.67;;;;;;;;;;5051041;28;20560;-61
2023/08/08 03:19:22;;;;;;;12.60;6.90;;;;;;;;;;5068496;28;20049;-61
2023/08/08 03:21:48;;;;;;;15.17;6.80;;;;;;;;;;5068508;28;20048;-61
2023/08/08 03:24:14;;;;;;;14.00;7.80;;;;;;;;;;5054794;28;20405;-60
2023/08/08 03:26:40;;;;;;;14.67;6.70;;;;;;;;;;5049040;28;20115;-61
2023/08/08 03:29:09;;;;;;;13.57;6.63;;;;;;;;;;5060256;28;20055;-61
2023/08/08 03:31:35;;;;;;;10.70;6.20;;;;;;;;;;5060032;28;20053;-61
2023/08/08 03:34:01;;;;;;;14.10;6.47;;;;;;;;;;5047692;28;20048;-60
2023/08/08 03:36:27;;;;;;;10.13;5.67;;;;;;;;;;5047875;28;20044;-61
2023/08/08 03:38:53;;;;;;;10.57;5.50;;;;;;;;;;5047000;28;20045;-61
2023/08/08 03:41:19;;;;;;;13.37;5.83;;;;;;;;;;5047995;28;20044;-61
2023/08/08 03:43:45;;;;;;;12.03;5.03;;;;;;;;;;5047889;28;20041;-61
2023/08/08 03:46:11;;;;;;;13.87;5.33;;;;;;;;;;5048091;28;20044;-61
2023/08/08 03:48:38;;;;;;;13.67;5.90;;;;;;;;;;5055226;28;20076;-62
2023/08/08 03:51:04;;;;;;;9.80;4.43;;;;;;;;;;5058954;28;20450;-61
2023/08/08 03:53:30;;;;;;;8.60;4.23;;;;;;;;;;5059643;28;20041;-60
2023/08/08 03:55:56;;;;;;;16.60;4.67;;;;;;;;;;5048100;28;20071;-61
2023/08/08 03:58:22;;;;;;;9.03;4.13;;;;;;;;;;5057793;28;20076;-61
2023/08/08 04:00:48;;;;;;;13.53;3.93;;;;;;;;;;5067656;28;20044;-61
2023/08/08 04:03:14;;;;;;;7.87;4.03;;;;;;;;;;5067994;28;20044;-60
2023/08/08 04:05:41;;;;;;;12.47;4.50;;;;;;;;;;5068224;28;20041;-61
2023/08/08 04:08:07;;;;;;;8.40;3.70;;;;;;;;;;5064428;28;20041;-61
2023/08/08 04:10:33;;;;;;;9.80;3.60;;;;;;;;;;5061199;28;20659;-61
2023/08/08 04:12:59;;;;;;;16.10;4.30;;;;;;;;;;5072075;28;20040;-61
2023/08/08 04:15:25;;;;;;;11.40;3.37;;;;;;;;;;5071682;28;20490;-61
2023/08/08 04:17:51;;;;;;;11.87;3.57;;;;;;;;;;5071695;28;20037;-61
2023/08/08 04:20:17;;;;;;;9.97;3.40;;;;;;;;;;5071365;28;20040;-61
2023/08/08 04:22:43;;;;;;;9.93;3.50;;;;;;;;;;5071056;28;20089;-61
2023/08/08 04:25:09;;;;;;;13.23;4.10;;;;;;;;;;5065262;28;20128;-61
2023/08/08 04:27:35;;;;;;;10.93;3.80;;;;;;;;;;5051194;28;20044;-61
2023/08/08 04:30:01;;;;;;;12.17;3.60;;;;;;;;;;5050872;28;20056;-61
2023/08/08 04:32:27;;;;;;;10.60;3.47;;;;;;;;;;5051223;28;20044;-61
2023/08/08 04:34:53;;;;;;;10.77;3.43;;;;;;;;;;5051374;28;20171;-61
2023/08/08 04:37:19;;;;;;;17.07;3.33;;;;;;;;;;5051261;28;20060;-61
2023/08/08 04:39:45;;;;;;;10.23;2.73;;;;;;;;;;5051103;28;20414;-61
2023/08/08 04:42:11;;;;;;;10.40;2.97;;;;;;;;;;5051358;28;20045;-61
2023/08/08 04:44:37;;;;;;;11.40;2.80;;;;;;;;;;5050735;28;20132;-61
2023/08/08 04:47:03;;;;;;;9.50;2.57;;;;;;;;;;5060529;28;20048;-61
2023/08/08 04:49:29;;;;;;;7.37;2.73;;;;;;;;;;5070931;28;20048;-61
2023/08/08 04:51:55;;;;;;;7.27;2.33;;;;;;;;;;5064927;28;20045;-60
2023/08/08 04:54:20;;;;;;;12.27;2.83;;;;;;;;;;5053818;28;20040;-61
2023/08/08 04:56:46;;;;;;;6.87;2.30;;;;;;;;;;5064002;28;20049;-61
2023/08/08 04:59:12;;;;;;;10.13;2.40;;;;;;;;;;5063987;28;20048;-60
2023/08/08 05:01:38;;;;;;;8.40;2.67;;;;;;;;;;5070550;28;20402;-61
2023/08/08 05:04:05;;;;;;;7.63;2.37;;;;;;;;;;5070683;28;20040;-61
2023/08/08 05:06:31;;;;;;;12.10;2.80;;;;;;;;;;5069991;28;20163;-61
2023/08/08 05:08:57;;;;;;;11.50;2.60;;;;;;;;;;5070640;28;20521;-60
2023/08/08 05:11:23;;;;;;;10.73;2.60;;;;;;;;;;5070551;28;20499;-60
2023/08/08 05:13:49;;;;;;;5.10;2.27;;;;;;;;;;5050224;28;20059;-60
2023/08/08 05:16:15;;;;;;;11.37;2.67;;;;;;;;;;5056929;28;20052;-61
2023/08/08 05:18:44;;;;;;;13.90;2.77;;;;;;;;;;5070721;28;20414;-60
2023/08/08 05:21:10;;;;;;;8.83;2.13;;;;;;;;;;5070495;28;20145;-60
2023/08/08 05:23:36;;;;;;;10.20;2.07;;;;;;;;;;5069690;28;20044;-61
2023/08/08 05:26:03;;;;;;;11.53;3.70;;;;;;;;;;5070431;28;20044;-60
2023/08/08 05:28:29;;;;;;;7.40;1.87;;;;;;;;;;5066983;28;20053;-61
2023/08/08 05:30:56;;;;;;;6.57;2.00;;;;;;;;;;5050081;28;20037;-61
2023/08/08 05:33:22;;;;;;;7.57;2.00;;;;;;;;;;5057392;28;20059;-61
2023/08/08 05:35:48;;;;;;;9.87;2.10;;;;;;;;;;5070196;28;20044;-61
2023/08/08 05:38:14;;;;;;;10.63;2.03;;;;;;;;;;5069939;28;20067;-61
2023/08/08 05:40:40;;;;;;;5.67;1.67;;;;;;;;;;5049659;28;20037;-61
2023/08/08 05:43:06;;;;;;;6.17;2.30;;;;;;;;;;5049560;28;20049;-61
2023/08/08 05:45:32;;;;;;;7.30;1.83;;;;;;;;;;5048931;28;20127;-61
2023/08/08 05:48:00;;;;;;;8.70;1.83;;;;;;;;;;5052729;28;20053;-60
2023/08/08 05:50:27;;;;;;;12.00;2.33;;;;;;;;;;5057859;28;20101;-61
2023/08/08 05:52:53;;;;;;;10.23;2.50;;;;;;;;;;5052993;28;20056;-62
2023/08/08 05:55:19;;;;;;;10.40;2.30;;;;;;;;;;5052408;28;20115;-61
2023/08/08 05:57:44;;;;;;;9.13;2.13;;;;;;;;;;5058721;28;20040;-61
2023/08/08 06:00:11;;;;;;;7.23;1.90;;;;;;;;;;5053078;28;20086;-61
2023/08/08 06:02:37;;;;;;;10.43;2.07;;;;;;;;;;5066617;28;20507;-61
2023/08/08 06:05:04;;;;;;;8.27;1.80;;;;;;;;;;5065773;28;20178;-61
2023/08/08 06:07:30;;;;;;;6.90;2.70;;;;;;;;;;5058181;28;20055;-61
2023/08/08 06:09:56;;;;;;;9.00;1.87;;;;;;;;;;5069753;28;20052;-61
2023/08/08 06:12:22;;;;;;;6.93;1.43;;;;;;;;;;5069015;28;20048;-61
2023/08/08 06:14:48;;;;;;;9.87;1.90;;;;;;;;;;5069554;28;20131;-61
2023/08/08 06:17:14;;;;;;;7.63;2.57;;;;;;;;;;5065596;28;20116;-60
2023/08/08 06:19:40;;;;;;;7.53;1.83;;;;;;;;;;5049550;28;20056;-61
2023/08/08 06:22:06;;;;;;;6.80;1.70;;;;;;;;;;5049246;28;20114;-61
2023/08/08 06:24:32;;;;;;;9.70;1.90;;;;;;;;;;5049713;28;20045;-61
2023/08/08 06:26:58;;;;;;;7.30;1.63;;;;;;;;;;5048812;28;20530;-61
2023/08/08 06:29:24;;;;;;;10.50;2.03;;;;;;;;;;5048654;28;20049;-60
2023/08/08 06:31:51;;;;;;;5.70;1.80;;;;;;;;;;5048515;28;20099;-61
2023/08/08 06:34:16;;;;;;;7.53;1.90;;;;;;;;;;5049102;28;21361;-61
2023/08/08 06:36:43;;;;;;;9.83;1.90;;;;;;;;;;5048363;28;20051;-61
2023/08/08 06:39:09;;;;;;;9.67;1.40;;;;;;;;;;5049041;28;20090;-60
2023/08/08 06:41:35;;;;;;;6.73;2.27;;;;;;;;;;5049520;28;20095;-61
2023/08/08 06:44:01;;;;;;;6.13;1.53;;;;;;;;;;5047498;28;20053;-61
2023/08/08 06:46:27;;;;;;;6.23;1.07;;;;;;;;;;5048637;28;20049;-61
2023/08/08 06:48:56;;;;;;;11.10;2.30;;;;;;;;;;5049046;28;20094;-61
2023/08/08 06:51:23;;;;;;;4.87;1.60;;;;;;;;;;5047968;28;20053;-61
2023/08/08 06:53:48;;;;;;;8.67;1.93;;;;;;;;;;5055652;28;20128;-61
2023/08/08 06:56:14;;;;;;;6.97;1.30;;;;;;;;;;5048704;28;20131;-61
2023/08/08 06:58:40;;;;;;;4.07;0.93;;;;;;;;;;5058971;28;20047;-61
2023/08/08 07:01:06;;;;;;;6.77;1.30;;;;;;;;;;5068220;28;20444;-61
2023/08/08 07:03:32;;;;;;;7.20;1.53;;;;;;;;;;5068407;28;20060;-61
2023/08/08 07:06:00;;;;;;;9.07;1.33;;;;;;;;;;5068403;28;20040;-61
2023/08/08 07:08:26;;;;;;;6.77;1.80;;;;;;;;;;5068363;28;20132;-61
2023/08/08 07:10:52;;;;;;;8.73;2.27;;;;;;;;;;5068104;28;20051;-61
2023/08/08 07:13:18;;;;;;;5.60;1.07;;;;;;;;;;5068535;28;20044;-61
2023/08/08 07:15:44;;;;;;;7.37;1.50;;;;;;;;;;5067475;28;20044;-60
2023/08/08 07:18:10;;;;;;;4.60;0.90;;;;;;;;;;5068368;28;20048;-61
2023/08/08 07:20:36;;;;;;;4.97;1.13;;;;;;;;;;5068227;28;20139;-60
2023/08/08 07:23:02;;;;;;;4.87;1.40;;;;;;;;;;5068137;28;20082;-60
2023/08/08 07:25:29;;;;;;;8.23;1.03;;;;;;;;;;5067092;28;20056;-60
2023/08/08 07:27:55;;;;;;;5.00;1.33;;;;;;;;;;5068301;28;20052;-60
2023/08/08 07:30:21;;;;;;;8.93;1.30;;;;;;;;;;5068357;28;20036;-61
2023/08/08 07:32:47;;;;;;;5.73;1.07;;;;;;;;;;5067677;28;20041;-60
2023/08/08 07:35:13;;;;;;;8.57;1.37;;;;;;;;;;5067628;28;20037;-59
2023/08/08 07:37:39;;;;;;;7.07;1.00;;;;;;;;;;5068532;28;20048;-60
2023/08/08 07:40:14;;;;;;;6.13;1.53;;;;;;;;;;5068128;28;20067;-60
2023/08/08 07:42:40;;;;;;;4.20;1.10;;;;;;;;;;5069471;28;20505;-60
2023/08/08 07:45:06;;;;;;;4.77;1.10;;;;;;;;;;5072288;28;20044;-60
2023/08/08 07:47:32;;;;;;;4.67;1.20;;;;;;;;;;5070170;28;20075;-60
2023/08/08 07:49:58;;;;;;;3.57;1.07;;;;;;;;;;5064539;28;20590;-60
2023/08/08 07:52:24;;;;;;;4.83;1.77;;;;;;;;;;5071913;28;20566;-60
2023/08/08 07:54:50;;;;;;;7.10;1.20;;;;;;;;;;5059498;28;20055;-60
2023/08/08 07:57:16;;;;;;;5.20;1.20;;;;;;;;;;5051566;28;20049;-62
2023/08/08 07:59:42;;;;;;;5.70;1.07;;;;;;;;;;5052140;28;20183;-60
2023/08/08 08:02:08;;;;;;;7.87;1.27;;;;;;;;;;5066385;28;20059;-60
2023/08/08 08:04:35;;;;;;;8.40;1.17;;;;;;;;;;5071280;28;20147;-61
2023/08/08 08:07:02;;;;;;;2.73;1.00;;;;;;;;;;5071256;28;20048;-61
2023/08/08 08:09:28;;;;;;;7.57;1.00;;;;;;;;;;5069873;28;20052;-61
2023/08/08 08:11:54;;;;;;;6.53;1.30;;;;;;;;;;5068405;28;20753;-60
2023/08/08 08:14:20;;;;;;;2.47;0.80;;;;;;;;;;5059812;28;20045;-61
2023/08/08 08:16:46;;;;;;;6.20;0.87;;;;;;;;;;5050956;28;20069;-60
2023/08/08 08:19:13;;;;;;;6.53;1.30;;;;;;;;;;5051017;28;20041;-60
2023/08/08 08:21:39;;;;;;;3.00;1.10;;;;;;;;;;5065242;28;20101;-60
2023/08/08 08:24:05;;;;;;;5.70;1.43;;;;;;;;;;5050721;28;20044;-60
2023/08/08 08:26:32;;;;;;;3.07;1.10;;;;;;;;;;5050782;28;20511;-61
2023/08/08 08:28:58;;;;;;;6.67;0.97;;;;;;;;;;5050776;28;20047;-61
2023/08/08 08:31:24;;;;;;;5.60;1.17;;;;;;;;;;5050779;28;20053;-60
2023/08/08 08:33:50;;;;;;;6.63;1.30;;;;;;;;;;5050649;28;20064;-61
2023/08/08 08:36:16;;;;;;;3.70;0.80;;;;;;;;;;5050667;28;20049;-60
2023/08/08 08:38:42;;;;;;;6.50;1.17;;;;;;;;;;5050907;28;20048;-61
2023/08/08 08:41:10;;;;;;;5.13;1.20;;;;;;;;;;5065566;28;20056;-60
2023/08/08 08:43:36;;;;;;;3.87;0.87;;;;;;;;;;5067273;28;20060;-60
2023/08/08 08:46:03;;;;;;;8.73;1.17;;;;;;;;;;5070805;28;20048;-61
2023/08/08 08:48:29;;;;;;;6.03;1.00;;;;;;;;;;5070410;28;20098;-61
2023/08/08 08:50:57;;;;;;;7.27;1.97;;;;;;;;;;5067439;28;20116;-61
2023/08/08 08:53:23;;;;;;;6.17;0.80;;;;;;;;;;5049031;28;20048;-60
2023/08/08 08:55:50;;;;;;;3.53;1.33;;;;;;;;;;5047836;28;20199;-61
2023/08/08 08:58:16;;;;;;;4.27;0.80;;;;;;;;;;5049407;28;20424;-60
2023/08/08 09:00:44;;;;;;;8.13;1.10;;;;;;;;;;5049562;28;20140;-61
2023/08/08 09:03:10;;;;;;;6.23;1.00;;;;;;;;;;5052341;28;20041;-61
2023/08/08 09:05:36;;;;;;;5.47;1.20;;;;;;;;;;5062527;28;20128;-60
2023/08/08 09:08:02;;;;;;;5.00;1.40;;;;;;;;;;5069399;28;20049;-61
2023/08/08 09:10:31;;;;;;;5.50;1.10;;;;;;;;;;5068908;28;20541;-61
2023/08/08 09:12:59;;;;;;;4.23;0.97;;;;;;;;;;5069119;28;20048;-60
2023/08/08 09:15:25;;;;;;;6.50;1.10;;;;;;;;;;5068599;28;20122;-60
2023/08/08 09:17:51;;;;;;;4.03;1.10;;;;;;;;;;5068790;28;20118;-60
2023/08/08 09:20:17;;;;;;;3.87;1.10;;;;;;;;;;5069006;28;20110;-61
2023/08/08 09:22:43;;;;;;;3.63;1.00;;;;;;;;;;5068967;28;20443;-61
2023/08/08 09:25:10;;;;;;;5.03;0.80;;;;;;;;;;5068647;28;20057;-61
2023/08/08 09:27:36;;;;;;;5.13;1.00;;;;;;;;;;5068391;28;20047;-61
2023/08/08 09:30:02;;;;;;;3.47;0.87;;;;;;;;;;5068570;28;20040;-61
2023/08/08 09:32:30;;;;;;;3.80;0.90;;;;;;;;;;5068801;28;20044;-61
2023/08/08 09:34:56;;;;;;;8.67;1.33;;;;;;;;;;5068630;28;20041;-61
2023/08/08 09:37:22;;;;;;;3.93;1.23;;;;;;;;;;5060778;28;20048;-60
2023/08/08 09:39:56;;;;;;;4.87;1.10;;;;;;;;;;5050639;28;20110;-61
2023/08/08 09:42:22;;;;;;;3.53;1.00;;;;;;;;;;5049083;28;20045;-61
2023/08/08 09:44:48;;;;;;;4.60;0.83;;;;;;;;;;5049156;28;20045;-61
2023/08/08 09:47:15;;;;;;;3.90;0.97;;;;;;;;;;5049252;28;20047;-61
2023/08/08 09:49:41;;;;;;;6.90;1.07;;;;;;;;;;5056084;28;20048;-61
2023/08/08 09:52:08;;;;;;;4.43;1.10;;;;;;;;;;5032875;28;1028551;-60
2023/08/08 09:54:34;;;;;;;12.17;1.90;;;;;;;;;;5069089;28;20056;-64
2023/08/08 09:57:00;;;;;;;5.83;1.53;;;;;;;;;;5069705;28;20071;-64
2023/08/08 09:59:26;;;;;;;8.73;1.70;;;;;;;;;;5062415;28;20080;-64
2023/08/08 10:01:53;;;;;;;8.57;1.73;;;;;;;;;;5068848;28;20055;-64
2023/08/08 10:04:19;;;;;;;7.93;1.83;;;;;;;;;;5067073;28;20047;-64
2023/08/08 10:06:45;;;;;;;8.20;1.77;;;;;;;;;;5068238;28;20051;-64
2023/08/08 10:09:11;;;;;;;5.13;1.53;;;;;;;;;;5067051;28;20040;-64
2023/08/08 10:11:37;;;;;;;6.23;1.60;;;;;;;;;;5069212;28;20124;-65
2023/08/08 10:14:04;;;;;;;7.70;1.47;;;;;;;;;;5069566;28;20059;-65
2023/08/08 10:16:32;;;;;;;8.40;1.47;;;;;;;;;;5068387;28;20056;-65
2023/08/08 10:19:02;;;;;;;4.53;1.37;;;;;;;;;;5068829;28;20051;-64
2023/08/08 10:21:28;;;;;;;7.00;1.33;;;;;;;;;;5068460;28;20118;-64
2023/08/08 10:24:03;;;;;;;9.37;1.40;;;;;;;;;;5069007;28;20523;-64
2023/08/08 10:26:29;;;;;;;3.93;0.93;;;;;;;;;;5068443;28;20048;-64
2023/08/08 10:28:56;;;;;;;7.33;1.57;;;;;;;;;;5066207;28;20053;-63
2023/08/08 10:31:23;;;;;;;5.27;1.20;;;;;;;;;;5059818;28;20135;-63
2023/08/08 10:33:49;;;;;;;4.70;1.20;;;;;;;;;;5049045;28;20097;-64
2023/08/08 10:36:15;;;;;;;7.87;1.30;;;;;;;;;;5051548;28;20049;-63
2023/08/08 10:38:46;;;;;;;6.00;1.33;;;;;;;;;;5068415;28;20048;-63
2023/08/08 10:41:17;;;;;;;7.50;1.67;;;;;;;;;;5068943;28;20041;-63
2023/08/08 10:43:53;;;;;;;9.73;1.20;;;;;;;;;;5069016;28;20050;-63
2023/08/08 10:46:26;;;;;;;4.83;0.97;;;;;;;;;;5050830;28;20419;-63
2023/08/08 10:48:53;;;;;;;7.57;1.87;;;;;;;;;;5048513;28;20056;-63
2023/08/08 10:51:19;;;;;;;7.27;1.27;;;;;;;;;;5048646;28;20056;-62
2023/08/08 10:53:45;;;;;;;7.53;1.57;;;;;;;;;;5048721;28;20053;-62
2023/08/08 10:56:13;;;;;;;4.13;1.43;;;;;;;;;;5047523;28;20132;-62
2023/08/08 10:58:40;;;;;;;4.50;1.30;;;;;;;;;;5048491;28;20049;-62
2023/08/08 11:01:10;;;;;;;6.37;1.73;;;;;;;;;;5048799;28;20095;-61
2023/08/08 11:03:38;;;;;;;3.60;1.13;;;;;;;;;;5055723;28;20101;-62
2023/08/08 11:06:04;;;;;;;4.67;1.30;;;;;;;;;;5068031;28;20083;-62
2023/08/08 11:08:32;;;;;;;10.03;1.50;;;;;;;;;;5066002;28;20062;-63
2023/08/08 11:10:59;;;;;;;4.17;1.23;;;;;;;;;;5048053;28;20049;-65
2023/08/08 11:13:25;;;;;;;3.70;1.17;;;;;;;;;;5048077;28;20095;-64
2023/08/08 11:15:51;;;;;;;5.47;2.10;;;;;;;;;;5048210;28;20059;-65
2023/08/08 11:18:17;;;;;;;3.37;1.20;;;;;;;;;;5063797;28;20053;-65
2023/08/08 11:20:44;;;;;;;4.17;1.50;;;;;;;;;;5067751;28;20529;-65
2023/08/08 11:23:12;;;;;;;5.83;1.47;;;;;;;;;;5067545;28;20051;-65
2023/08/08 11:25:40;;;;;;;7.17;1.40;;;;;;;;;;5068110;28;20166;-65
2023/08/08 11:28:06;;;;;;;4.70;1.17;;;;;;;;;;5064860;28;20051;-65
2023/08/08 11:30:35;;;;;;;3.50;1.10;;;;;;;;;;5067442;28;20049;-65
2023/08/08 11:33:01;;;;;;;8.07;1.20;;;;;;;;;;5068366;28;20044;-64
2023/08/08 11:35:27;;;;;;;5.23;1.43;;;;;;;;;;5067900;28;20044;-64
2023/08/08 11:37:54;;;;;;;5.07;1.43;;;;;;;;;;5068215;28;20498;-64
2023/08/08 11:40:21;;;;;;;5.10;1.23;;;;;;;;;;5068311;28;20041;-64
2023/08/08 11:42:50;;;;;;;4.07;1.30;;;;;;;;;;5067903;28;20094;-63
2023/08/08 11:45:16;;;;;;;4.00;1.30;;;;;;;;;;5068077;28;20398;-63
2023/08/08 11:47:42;;;;;;;8.53;1.80;;;;;;;;;;5065528;28;20120;-63
2023/08/08 11:50:09;;;;;;;6.40;1.70;;;;;;;;;;5067853;28;20139;-64
2023/08/08 11:52:36;;;;;;;4.20;1.50;;;;;;;;;;5061276;28;20394;-64
2023/08/08 11:55:02;;;;;;;4.30;1.90;;;;;;;;;;5062360;28;20456;-65
2023/08/08 11:57:28;;;;;;;6.73;1.80;;;;;;;;;;5047153;28;20049;-64
2023/08/08 11:59:54;;;;;;;6.47;1.53;;;;;;;;;;5047973;28;20931;-65
2023/08/08 12:02:21;;;;;;;5.87;2.00;;;;;;;;;;5047882;28;20049;-65
2023/08/08 12:04:47;;;;;;;6.93;1.90;;;;;;;;;;5060636;28;20044;-65
2023/08/08 12:07:13;;;;;;;8.10;1.83;;;;;;;;;;5067038;28;20418;-65
2023/08/08 12:09:40;;;;;;;4.73;1.30;;;;;;;;;;5066860;28;20092;-65
2023/08/08 12:12:06;;;;;;;5.30;1.50;;;;;;;;;;5067620;28;20549;-64
2023/08/08 12:14:39;;;;;;;27.63;3.03;;;;;;;;;;5060957;28;20426;-63
2023/08/08 12:17:05;;;;;;;8.10;1.90;;;;;;;;;;5067614;28;20486;-63
2023/08/08 12:19:31;;;;;;;10.23;1.80;;;;;;;;;;5064929;28;20390;-63
2023/08/08 12:21:57;;;;;;;8.10;1.70;;;;;;;;;;5063885;28;20055;-63
2023/08/08 12:24:23;;;;;;;6.00;1.60;;;;;;;;;;5052627;28;20490;-64
2023/08/08 12:26:49;;;;;;;4.50;1.63;;;;;;;;;;5051878;28;20474;-64
2023/08/08 12:29:15;;;;;;;4.90;1.53;;;;;;;;;;5069905;28;20052;-64
2023/08/08 12:31:41;;;;;;;7.37;1.37;;;;;;;;;;5069479;28;20090;-64
2023/08/08 12:34:07;;;;;;;8.30;1.67;;;;;;;;;;5070083;28;20052;-64
2023/08/08 12:36:34;;;;;;;4.40;1.17;;;;;;;;;;5069327;28;20415;-64
2023/08/08 12:39:00;;;;;;;8.60;1.40;;;;;;;;;;5068682;28;20033;-65
2023/08/08 12:41:26;;;;;;;5.60;1.40;;;;;;;;;;5063673;28;20044;-64
2023/08/08 12:43:52;;;;;;;6.00;1.80;;;;;;;;;;5067766;28;20060;-64
2023/08/08 12:46:18;;;;;;;3.83;1.23;;;;;;;;;;5059416;28;20045;-64
2023/08/08 12:48:44;;;;;;;4.20;1.40;;;;;;;;;;5066155;28;20105;-65
2023/08/08 12:51:10;;;;;;;2.80;1.07;;;;;;;;;;5061099;28;20052;-64
2023/08/08 12:53:36;;;;;;;4.70;1.10;;;;;;;;;;5051008;28;20041;-65
2023/08/08 12:56:03;;;;;;;5.47;1.40;;;;;;;;;;5050231;28;20049;-65
2023/08/08 12:58:29;;;;;;;4.87;1.17;;;;;;;;;;5051163;28;20135;-65
2023/08/08 13:00:55;;;;;;;6.97;1.17;;;;;;;;;;5058280;28;20040;-64
2023/08/08 13:03:21;;;;;;;6.00;1.27;;;;;;;;;;5069787;28;20041;-65
2023/08/08 13:05:47;;;;;;;2.20;0.90;;;;;;;;;;5069107;28;20037;-65
2023/08/08 13:08:13;;;;;;;4.33;1.10;;;;;;;;;;5070381;28;20064;-65
2023/08/08 13:10:40;;;;;;;6.57;1.40;;;;;;;;;;5069761;28;20498;-65
2023/08/08 13:13:06;;;;;;;6.30;1.10;;;;;;;;;;5070306;28;20052;-65
2023/08/08 13:15:32;;;;;;;7.80;1.67;;;;;;;;;;5070260;28;20036;-64
2023/08/08 13:17:59;;;;;;;7.17;1.80;;;;;;;;;;5070210;28;20040;-63
2023/08/08 13:20:28;;;;;;;7.73;1.50;;;;;;;;;;5069977;28;20095;-63
2023/08/08 13:22:54;;;;;;;5.47;1.30;;;;;;;;;;5069631;28;20047;-63
2023/08/08 13:25:20;;;;;;;6.23;1.10;;;;;;;;;;5069745;28;20053;-63
2023/08/08 13:27:47;;;;;;;5.20;1.40;;;;;;;;;;5070175;28;20044;-62
2023/08/08 13:30:16;;;;;;;3.30;1.10;;;;;;;;;;5069950;28;20271;-62
2023/08/08 13:32:42;;;;;;;5.10;1.40;;;;;;;;;;5069490;28;20052;-62
2023/08/08 13:35:08;;;;;;;6.97;2.00;;;;;;;;;;5069984;28;20379;-62
2023/08/08 13:37:34;;;;;;;4.57;1.30;;;;;;;;;;5069783;28;20056;-62
2023/08/08 13:40:00;;;;;;;4.67;1.50;;;;;;;;;;5068432;28;20093;-62
2023/08/08 13:42:26;;;;;;;8.53;1.93;;;;;;;;;;5069508;28;20059;-62
2023/08/08 13:44:52;;;;;;;8.20;1.50;;;;;;;;;;5069357;28;20083;-62
2023/08/08 13:47:18;;;;;;;5.70;1.70;;;;;;;;;;5069461;28;20490;-62
2023/08/08 13:49:44;;;;;;;5.70;1.57;;;;;;;;;;5069401;28;20085;-62
2023/08/08 13:52:10;;;;;;;3.87;1.47;;;;;;;;;;5069371;28;20067;-62
2023/08/08 13:54:37;;;;;;;6.10;1.63;;;;;;;;;;5069295;28;20059;-61
2023/08/08 13:57:03;;;;;;;3.13;1.33;;;;;;;;;;5068742;28;20044;-62
2023/08/08 13:59:29;;;;;;;5.40;1.30;;;;;;;;;;5069157;28;20517;-62
2023/08/08 14:01:55;;;;;;;7.03;1.20;;;;;;;;;;5069234;28;20052;-61
2023/08/08 14:04:21;;;;;;;18.10;1.30;;;;;;;;;;5068981;28;20045;-61
2023/08/08 14:06:47;;;;;;;4.73;1.23;;;;;;;;;;5068529;28;20498;-62
2023/08/08 14:09:13;;;;;;;5.60;1.43;;;;;;;;;;5069096;28;20414;-61
2023/08/08 14:11:39;;;;;;;4.80;1.03;;;;;;;;;;5068945;28;20059;-61
2023/08/08 14:14:05;;;;;;;3.70;1.20;;;;;;;;;;5069032;28;20051;-62
2023/08/08 14:16:32;;;;;;;4.00;1.30;;;;;;;;;;5068764;28;20094;-62
2023/08/08 14:18:58;;;;;;;3.03;1.20;;;;;;;;;;5068632;28;20498;-62
2023/08/08 14:21:24;;;;;;;8.37;1.30;;;;;;;;;;5068762;28;20048;-62
2023/08/08 14:23:50;;;;;;;6.13;1.30;;;;;;;;;;5068860;28;20472;-62
2023/08/08 14:26:16;;;;;;;6.43;1.10;;;;;;;;;;5068691;28;20440;-62
2023/08/08 14:28:42;;;;;;;5.87;1.23;;;;;;;;;;5068772;28;20410;-61
2023/08/08 14:31:08;;;;;;;3.50;1.07;;;;;;;;;;5068063;28;20044;-62
2023/08/08 14:33:34;;;;;;;4.63;1.50;;;;;;;;;;5069084;28;20044;-62